createdAt,value
2018-10-12T00:01:25.021Z,99.90
2018-10-12T00:03:54.223Z,99.90
2018-10-12T00:06:23.383Z,99.90
2018-10-12T00:08:52.515Z,99.90
2018-10-12T00:11:21.702Z,99.90
2018-10-12T00:13:50.869Z,99.90
2018-10-12T00:16:20.028Z,99.90
2018-10-12T00:18:49.490Z,99.90
2018-10-12T00:21:18.683Z,99.90
2018-10-12T00:23:47.837Z,99.90
2018-10-12T00:26:17.034Z,99.90
2018-10-12T00:29:00.941Z,99.90
2018-10-12T00:31:30.149Z,99.90
2018-10-12T00:33:59.346Z,99.90
2018-10-12T00:36:28.509Z,99.90
2018-10-12T00:38:57.810Z,99.90
2018-10-12T00:41:26.977Z,99.90
2018-10-12T00:43:56.119Z,99.90
2018-10-12T00:46:25.313Z,99.90
2018-10-12T00:48:54.478Z,99.90
2018-10-12T00:51:23.649Z,99.90
2018-10-12T00:53:52.862Z,99.90
2018-10-12T00:56:22.012Z,99.90
2018-10-12T00:58:51.201Z,99.90
2018-10-12T01:01:20.863Z,99.90
2018-10-12T01:03:50.521Z,99.90
2018-10-12T01:06:19.721Z,99.90
2018-10-12T01:08:48.922Z,99.90
2018-10-12T01:11:18.108Z,99.90
2018-10-12T01:13:47.261Z,99.90
2018-10-12T01:16:16.464Z,99.90
2018-10-12T01:18:45.636Z,99.90
2018-10-12T01:21:14.997Z,99.90
2018-10-12T01:23:44.196Z,99.90
2018-10-12T01:26:13.361Z,99.90
2018-10-12T01:28:42.566Z,99.90
2018-10-12T01:31:11.753Z,99.90
2018-10-12T01:33:40.919Z,99.90
2018-10-12T01:36:10.122Z,99.90
2018-10-12T01:38:39.341Z,99.90
2018-10-12T01:41:08.517Z,99.90
2018-10-12T01:43:37.680Z,99.90
2018-10-12T01:46:06.905Z,99.90
2018-10-12T01:48:36.122Z,99.90
2018-10-12T01:51:05.309Z,99.90
2018-10-12T01:53:34.809Z,99.90
2018-10-12T01:56:05.328Z,99.90
2018-10-12T01:58:35.226Z,99.90
2018-10-12T02:01:05.290Z,99.90
2018-10-12T02:03:34.694Z,99.90
2018-10-12T02:06:04.276Z,99.90
2018-10-12T02:08:34.521Z,99.90
2018-10-12T02:11:04.133Z,99.90
2018-10-12T02:13:33.743Z,99.90
2018-10-12T02:16:04.533Z,99.90
2018-10-12T02:18:34.563Z,99.90
2018-10-12T02:21:06.087Z,99.90
2018-10-12T02:23:37.216Z,99.90
2018-10-12T02:26:07.585Z,99.90
2018-10-12T02:28:36.765Z,99.90
2018-10-12T02:31:06.234Z,99.90
2018-10-12T02:33:35.528Z,99.90
2018-10-12T02:36:04.781Z,99.90
2018-10-12T02:38:33.948Z,99.90
2018-10-12T02:41:03.186Z,99.90
2018-10-12T02:43:32.362Z,99.90
2018-10-12T02:46:01.563Z,99.90
2018-10-12T02:49:00.331Z,99.90
2018-10-12T02:51:30.065Z,99.90
2018-10-12T02:53:59.229Z,99.90
2018-10-12T02:56:28.426Z,99.90
2018-10-12T02:58:57.599Z,99.90
2018-10-12T03:01:26.781Z,99.90
2018-10-12T03:03:55.984Z,99.90
2018-10-12T03:06:25.159Z,99.90
2018-10-12T03:08:54.445Z,99.90
2018-10-12T03:11:23.704Z,99.90
2018-10-12T03:13:52.883Z,99.90
2018-10-12T03:16:22.031Z,99.90
2018-10-12T03:18:51.258Z,99.90
2018-10-12T03:21:20.516Z,99.90
2018-10-12T03:23:49.853Z,99.90
2018-10-12T03:26:19.037Z,99.90
2018-10-12T03:28:48.209Z,99.90
2018-10-12T03:31:17.699Z,99.90
2018-10-12T03:33:46.896Z,99.90
2018-10-12T03:36:16.118Z,99.90
2018-10-12T03:38:45.391Z,99.90
2018-10-12T03:41:14.672Z,99.90
2018-10-12T03:44:03.153Z,99.90
2018-10-12T03:46:32.317Z,99.90
2018-10-12T03:49:01.506Z,99.90
2018-10-12T03:51:30.865Z,99.90
2018-10-12T03:54:00.255Z,99.90
2018-10-12T03:56:29.446Z,99.90
2018-10-12T03:58:58.644Z,99.90
2018-10-12T04:01:27.822Z,99.90
2018-10-12T04:03:56.997Z,99.90
2018-10-12T04:06:26.221Z,99.90
2018-10-12T04:08:55.416Z,99.90
2018-10-12T04:14:24.515Z,99.90
2018-10-12T04:16:53.681Z,99.90
2018-10-12T04:19:22.824Z,99.90
2018-10-12T04:21:52.018Z,99.90
2018-10-12T04:24:21.221Z,99.90
2018-10-12T04:26:50.377Z,99.90
2018-10-12T04:29:19.586Z,99.90
2018-10-12T04:31:48.780Z,99.90
2018-10-12T04:34:17.939Z,99.90
2018-10-12T04:36:47.190Z,99.90
2018-10-12T04:42:16.328Z,99.90
2018-10-12T04:44:45.517Z,99.90
2018-10-12T04:47:14.765Z,99.90
2018-10-12T04:49:43.918Z,99.90
2018-10-12T04:52:13.484Z,99.90
2018-10-12T04:55:01.701Z,99.90
2018-10-12T04:57:30.993Z,99.90
2018-10-12T05:00:00.168Z,99.90
2018-10-12T05:02:29.390Z,99.90
2018-10-12T05:04:58.540Z,99.90
2018-10-12T05:20:16.654Z,99.90
2018-10-12T05:22:45.878Z,99.90
2018-10-12T05:25:15.131Z,99.90
2018-10-12T05:28:03.275Z,99.90
2018-10-12T05:31:01.215Z,99.90
2018-10-12T05:33:59.926Z,99.90
2018-10-12T05:39:59.718Z,99.90
2018-10-12T05:42:28.883Z,99.90
2018-10-12T05:45:04.175Z,99.90
2018-10-12T05:47:59.873Z,99.90
2018-10-12T05:56:19.178Z,99.90
2018-10-12T05:59:01.806Z,99.90
2018-10-12T06:02:00.572Z,99.90
2018-10-12T06:08:00.209Z,99.90
2018-10-12T06:13:40.320Z,99.90
2018-10-12T06:16:09.497Z,99.90
2018-10-12T06:19:01.962Z,99.90
2018-10-12T06:22:00.927Z,99.90
2018-10-12T06:25:01.552Z,99.90
2018-10-12T06:28:00.261Z,99.90
2018-10-12T06:30:29.534Z,99.90
2018-10-12T06:33:04.714Z,99.90
2018-10-12T06:35:59.681Z,99.90
2018-10-12T06:48:00.540Z,99.90
2018-10-12T06:56:20.805Z,99.90
2018-10-12T06:59:02.599Z,99.90
2018-10-12T07:02:00.897Z,99.90
2018-10-12T07:10:18.716Z,99.90
2018-10-12T07:13:01.550Z,99.90
2018-10-12T07:15:30.770Z,99.90
2018-10-12T07:17:59.994Z,99.90
2018-10-12T07:20:29.214Z,99.90
2018-10-12T07:22:58.468Z,99.90
2018-10-12T07:25:27.639Z,99.90
2018-10-12T07:28:02.412Z,99.90
2018-10-12T07:30:31.644Z,99.90
2018-10-12T07:33:00.967Z,99.90
2018-10-12T07:35:30.258Z,99.90
2018-10-12T07:38:02.998Z,99.90
2018-10-12T07:40:32.441Z,99.90
2018-10-12T07:43:03.438Z,99.90
2018-10-12T07:45:32.720Z,99.90
2018-10-12T07:48:01.970Z,99.90
2018-10-12T07:50:31.113Z,99.90
2018-10-12T07:53:00.321Z,99.90
2018-10-12T07:55:29.515Z,99.90
2018-10-12T07:57:58.677Z,99.90
2018-10-12T08:00:27.911Z,99.90
2018-10-12T08:02:57.098Z,99.90
2018-10-12T08:05:26.285Z,99.90
2018-10-12T08:07:55.503Z,99.90
2018-10-12T08:13:25.629Z,99.90
2018-10-12T08:15:57.132Z,99.90
2018-10-12T08:18:27.505Z,99.90
2018-10-12T08:20:56.694Z,99.90
2018-10-12T08:23:25.865Z,99.90
2018-10-12T08:25:55.091Z,99.90
2018-10-12T08:28:24.246Z,99.90
2018-10-12T08:30:53.605Z,99.90
2018-10-12T08:33:22.862Z,99.90
2018-10-12T08:35:52.038Z,99.90
2018-10-12T08:41:53.529Z,99.90
2018-10-12T08:44:22.678Z,99.90
2018-10-12T08:46:51.854Z,99.90
2018-10-12T08:49:21.101Z,99.90
2018-10-12T08:51:50.270Z,99.90
2018-10-12T08:54:19.449Z,99.90
2018-10-12T08:56:49.289Z,99.90
2018-10-12T08:59:18.456Z,99.90
2018-10-12T09:01:47.628Z,99.90
2018-10-12T09:04:16.821Z,99.90
2018-10-12T09:06:46.032Z,99.90
2018-10-12T09:09:15.215Z,99.90
2018-10-12T09:11:44.437Z,99.90
2018-10-12T09:14:13.594Z,99.90
2018-10-12T09:16:42.831Z,99.90
2018-10-12T09:19:12.031Z,99.90
2018-10-12T09:21:41.281Z,99.90
2018-10-12T09:24:10.426Z,99.90
2018-10-12T09:26:39.755Z,99.90
2018-10-12T09:29:08.920Z,99.90
2018-10-12T09:31:38.313Z,99.90
2018-10-12T09:34:07.806Z,99.90
2018-10-12T09:36:37.093Z,99.90
2018-10-12T09:39:07.706Z,99.90
2018-10-12T09:41:36.904Z,99.90
2018-10-12T09:44:06.093Z,99.90
2018-10-12T09:46:35.251Z,99.90
2018-10-12T09:49:04.435Z,99.90
2018-10-12T09:51:33.609Z,99.90
2018-10-12T09:54:02.785Z,99.90
2018-10-12T09:56:32.007Z,99.90
2018-10-12T09:59:01.172Z,99.90
2018-10-12T10:04:31.490Z,99.90
2018-10-12T10:07:01.883Z,99.90
2018-10-12T10:09:31.118Z,99.90
2018-10-12T10:12:00.323Z,99.90
2018-10-12T10:14:29.972Z,99.90
2018-10-12T10:16:59.173Z,99.90
2018-10-12T10:19:28.477Z,99.90
2018-10-12T10:21:57.655Z,99.90
2018-10-12T10:27:33.426Z,99.90
2018-10-12T10:33:02.497Z,99.90
2018-10-12T10:35:31.676Z,99.90
2018-10-12T10:38:00.818Z,99.20
2018-10-12T10:40:30.081Z,99.50
2018-10-12T10:42:59.544Z,99.40
2018-10-12T10:45:28.704Z,98.90
2018-10-12T10:47:57.914Z,98.90
2018-10-12T10:50:27.123Z,98.50
2018-10-12T10:52:56.442Z,98.70
2018-10-12T10:55:25.638Z,98.70
2018-10-12T10:58:02.924Z,98.20
2018-10-12T11:00:32.136Z,98.10
2018-10-12T11:03:01.373Z,97.40
2018-10-12T11:05:30.542Z,97.70
2018-10-12T11:07:59.753Z,97.20
2018-10-12T11:10:28.917Z,97.40
2018-10-12T11:12:58.133Z,96.70
2018-10-12T11:15:27.306Z,96.70
2018-10-12T11:17:56.492Z,97.20
2018-10-12T11:20:25.649Z,96.60
2018-10-12T11:22:54.834Z,96.50
2018-10-12T11:25:24.135Z,96.00
2018-10-12T11:27:53.195Z,96.10
2018-10-12T11:30:22.389Z,95.70
2018-10-12T11:32:51.645Z,95.90
2018-10-12T11:35:20.810Z,95.20
2018-10-12T11:37:50.049Z,95.70
2018-10-12T11:40:19.232Z,95.10
2018-10-12T11:43:05.558Z,95.50
2018-10-12T11:45:34.773Z,94.90
2018-10-12T11:48:03.946Z,95.80
2018-10-12T11:50:33.729Z,95.90
2018-10-12T11:53:02.906Z,94.30
2018-10-12T11:55:32.077Z,94.40
2018-10-12T11:58:01.306Z,94.70
2018-10-12T12:00:30.468Z,94.00
2018-10-12T12:02:59.618Z,93.50
2018-10-12T12:05:28.820Z,92.50
2018-10-12T12:07:58.040Z,92.20
2018-10-12T12:13:27.882Z,92.40
2018-10-12T12:15:57.067Z,91.80
2018-10-12T12:18:26.274Z,91.00
2018-10-12T12:21:02.613Z,91.60
2018-10-12T12:23:31.805Z,91.50
2018-10-12T12:26:01.008Z,91.30
2018-10-12T12:28:30.197Z,91.10
2018-10-12T12:30:59.373Z,92.30
2018-10-12T12:33:28.545Z,91.30
2018-10-12T12:35:58.022Z,90.60
2018-10-12T12:38:26.977Z,91.20
2018-10-12T12:40:56.157Z,90.10
2018-10-12T12:43:25.358Z,90.80
2018-10-12T12:45:54.542Z,89.60
2018-10-12T12:48:23.879Z,87.00
2018-10-12T12:51:03.461Z,87.10
2018-10-12T12:54:00.161Z,85.50
2018-10-12T13:09:00.653Z,83.80
2018-10-12T13:15:00.191Z,83.40
2018-10-12T13:23:51.306Z,82.60
2018-10-12T14:18:00.481Z,82.60
2018-10-12T14:27:00.832Z,82.50
2018-10-12T14:33:00.466Z,81.90
2018-10-12T14:45:01.115Z,82.90
2018-10-12T14:54:00.566Z,83.40
2018-10-12T15:06:00.066Z,83.50
2018-10-12T15:15:00.235Z,82.10
2018-10-12T15:24:00.403Z,82.50
2018-10-12T15:33:00.826Z,82.10
2018-10-12T15:39:00.529Z,83.50
2018-10-12T15:48:00.770Z,83.70
2018-10-12T15:57:00.464Z,83.60
2018-10-12T16:03:00.042Z,83.50
2018-10-12T16:15:00.726Z,83.80
2018-10-12T16:21:00.279Z,84.10
2018-10-12T16:33:00.857Z,85.00
2018-10-12T16:39:00.497Z,86.20
2018-10-12T16:48:00.037Z,86.30
2018-10-12T17:00:00.383Z,87.20
2018-10-12T17:12:00.531Z,89.00
2018-10-12T17:21:00.874Z,89.40
2018-10-12T17:27:00.389Z,89.90
2018-10-12T17:29:29.745Z,90.00
2018-10-12T17:32:04.928Z,90.20
2018-10-12T17:34:34.077Z,90.40
2018-10-12T17:37:03.262Z,90.50
2018-10-12T17:39:32.662Z,90.70
2018-10-12T17:42:16.903Z,90.50
2018-10-12T17:45:02.570Z,91.00
2018-10-12T17:47:31.809Z,90.50
2018-10-12T17:50:00.985Z,91.00
2018-10-12T17:52:30.257Z,91.00
2018-10-12T17:55:05.269Z,91.00
2018-10-12T17:57:34.505Z,91.00
2018-10-12T18:00:03.848Z,91.30
2018-10-12T18:02:32.966Z,91.20
2018-10-12T18:05:02.364Z,91.40
2018-10-12T18:07:31.583Z,91.40
2018-10-12T18:13:04.573Z,91.40
2018-10-12T18:16:01.066Z,91.60
2018-10-12T18:18:30.309Z,91.90
2018-10-12T18:21:03.135Z,92.10
2018-10-12T18:24:01.722Z,91.90
2018-10-12T18:26:30.985Z,92.30
2018-10-12T18:29:03.853Z,92.30
2018-10-12T18:32:02.135Z,92.60
2018-10-12T18:34:32.272Z,92.40
2018-10-12T18:37:03.401Z,92.50
2018-10-12T18:39:32.714Z,92.40
2018-10-12T18:42:05.238Z,92.90
2018-10-12T18:44:34.555Z,92.60
2018-10-12T18:47:04.774Z,93.00
2018-10-12T18:50:01.093Z,92.60
2018-10-12T18:52:30.348Z,93.10
2018-10-12T18:55:03.307Z,93.00
2018-10-12T18:58:01.605Z,93.50
2018-10-12T19:00:31.490Z,93.60
2018-10-12T19:06:04.658Z,93.70
2018-10-12T19:08:33.968Z,93.10
2018-10-12T19:11:03.212Z,93.60
2018-10-12T19:13:38.044Z,93.70
2018-10-12T19:16:07.493Z,94.20
2018-10-12T19:19:00.873Z,94.10
2018-10-12T19:21:30.355Z,93.90
2018-10-12T19:27:05.232Z,94.40
2018-10-12T19:30:01.120Z,94.50
2018-10-12T19:32:30.403Z,94.30
2018-10-12T19:35:04.202Z,94.50
2018-10-12T19:38:00.590Z,94.10
2018-10-12T19:46:29.470Z,94.80
2018-10-12T19:48:58.676Z,95.10
2018-10-12T20:04:08.670Z,94.90
2018-10-12T20:06:38.104Z,95.40
2018-10-12T20:09:10.242Z,95.00
2018-10-12T20:11:39.612Z,95.10
2018-10-12T20:14:09.293Z,94.70
2018-10-12T20:16:39.042Z,94.60
2018-10-12T20:19:08.895Z,94.90
2018-10-12T20:21:38.132Z,95.00
2018-10-12T20:24:11.694Z,95.20
2018-10-12T20:26:40.905Z,95.10
2018-10-12T20:29:12.074Z,95.20
2018-10-12T20:31:41.416Z,95.00
2018-10-12T20:34:10.606Z,95.20
2018-10-12T20:36:40.073Z,95.30
2018-10-12T20:39:10.838Z,95.40
2018-10-12T20:41:40.135Z,95.60
2018-10-12T20:44:09.658Z,95.80
2018-10-12T20:47:02.168Z,96.00
2018-10-12T20:49:31.363Z,96.30
2018-10-12T20:52:00.613Z,95.80
2018-10-12T20:55:32.669Z,96.20
2018-10-12T20:58:01.894Z,96.20
2018-10-12T21:00:31.156Z,95.50
2018-10-12T21:03:00.366Z,96.00
2018-10-12T21:05:29.639Z,96.50
2018-10-12T21:07:58.844Z,96.40
2018-10-12T21:10:29.173Z,96.50
2018-10-12T21:12:59.389Z,97.20
2018-10-12T21:15:29.150Z,97.20
2018-10-12T21:17:58.430Z,97.10
2018-10-12T21:20:27.678Z,97.00
2018-10-12T21:22:56.936Z,96.80
2018-10-12T21:25:26.121Z,97.50
2018-10-12T21:28:05.463Z,96.90
2018-10-12T21:30:34.637Z,96.80
2018-10-12T21:33:03.840Z,97.30
2018-10-12T21:35:33.069Z,96.90
2018-10-12T21:38:02.398Z,97.30
2018-10-12T21:40:31.594Z,97.40
2018-10-12T21:43:00.873Z,96.60
2018-10-12T21:45:30.049Z,97.60
2018-10-12T21:47:59.537Z,97.50
2018-10-12T21:56:30.185Z,97.30
2018-10-12T21:59:05.549Z,96.30
2018-10-12T22:01:35.052Z,97.10
2018-10-12T22:04:04.226Z,97.70
2018-10-12T22:06:33.582Z,98.40
2018-10-12T22:09:06.397Z,98.90
2018-10-12T22:11:35.791Z,98.10
2018-10-12T22:14:05.358Z,98.20
2018-10-12T22:16:34.596Z,98.70
2018-10-12T22:19:03.834Z,98.80
2018-10-12T22:21:33.022Z,98.50
2018-10-12T22:24:03.345Z,99.20
2018-10-12T22:26:32.521Z,99.20
2018-10-12T22:29:05.169Z,99.10
2018-10-12T22:31:34.318Z,98.40
2018-10-12T22:34:03.554Z,99.00
2018-10-12T22:36:32.742Z,98.50
2018-10-12T22:39:05.073Z,98.30
2018-10-12T22:41:34.362Z,98.60
2018-10-12T22:44:03.587Z,99.00
2018-10-12T22:46:32.938Z,99.40
2018-10-12T22:49:03.898Z,99.40
2018-10-12T22:52:02.406Z,99.10
2018-10-12T22:55:01.619Z,99.30
2018-10-12T22:57:30.789Z,99.60
2018-10-12T23:00:05.780Z,99.40
2018-10-12T23:02:34.954Z,99.70
2018-10-12T23:05:04.409Z,99.50
2018-10-12T23:07:33.593Z,99.80
2018-10-12T23:10:04.188Z,99.10
2018-10-12T23:16:00.977Z,99.20
2018-10-12T23:18:30.250Z,99.20
2018-10-12T23:21:05.760Z,99.80
2018-10-12T23:23:34.953Z,99.60
2018-10-12T23:26:04.221Z,99.70
2018-10-12T23:29:02.254Z,99.90
2018-10-12T23:31:31.416Z,99.90
2018-10-12T23:37:04.866Z,99.90
2018-10-12T23:40:01.301Z,99.90
2018-10-12T23:42:30.665Z,99.90
2018-10-12T23:48:05.529Z,99.90
2018-10-12T23:51:00.563Z,99.40
2018-10-12T23:56:30.614Z,99.90
2018-10-12T23:59:05.587Z,99.90
